Pagrindinis puslapis
METAR-TAF:

METAR-TAF

Oro uostai :

Niamėjus, Nigeris

platuma: 13-29N, ilguma: 002-10E, Aukštis: 223 m

Dabartinis oras

Ataskaita buvo paskelbta 1 valandą ir 22 minutes, ne 20:00 UTC
Vėjas 3 kt iš Rytų/Šiaurės Rytų
Temperatūra 32°C
Drėgmė 17%
Slėgis 1012 hPa
Matomumas: 8000 m

METAR: DRRN 222000Z 06003KT 8000 NSC 32/04 Q1012 NOSIG

Laikas: 22:22 (21:22 UTC)

Prognozė

Ataskaita buvo paskelbta 4 valandos ir 22 minutes, ne 17:00 UTC
Prognozė galioja nuo 22 metu 18 UTC su 23 metu 24 UTC
Vėjas 8 kt iš Rytų
Matomumas: 8000 m
Laikinai
nuo 23 metu 06 UTC su 23 metu 12 UTC
Matomumas: 2500 m
dulkės
Laikinai
nuo 23 metu 12 UTC su 23 metu 15 UTC
Vėjas 18 kt iš Rytų
Matomumas: 3500 m
Dulkes pustymas

TAF: DRRN 221700Z 2218/2324 08008KT 8000 NSC TEMPO 2306/2312 2500 DU TEMPO 2312/2315 10018KT 3500 BLDU

Orai ataskaitas ir orų prognozės (METAR, TAF).

turimą stotys yra geltonos ir raudonos taškus žemėlapyje.

Perkelti pele per norėdami pamatyti stoties vardą.

Tada spustelėkite, norėdami matyti oro stebėjimo ir prognozės.

Norėdami pakeisti žemėlapį: spustelėkite ant žalios mygtukų su juodo kryžiaus žemyn,; žalią mygtuką su brūkšneliu, jei norite nutolinti; arba žalių rodyklių gretimoms žemėlapius.


METAR-TAF: